Time;durP1;ratioP1;P1;durP2;ratioP2;P2;SDS_P1;SDS_P2;PMS_P1;PMS_P2;Temp;Humidity;BMP_temperature;BMP_pressure;BME280_temperature;BME280_humidity;BME280_pressure;Samples;Min_cycle;Max_cycle;Signal;HPM_P1;HPM_P2
2021/07/07 00:02:16;;;;;;;2.53;0.90;;;22.30;71.80;;;;;;3533416;40;20042;-68
2021/07/07 00:04:41;;;;;;;2.45;0.90;;;22.30;72.00;;;;;;3531627;40;20407;-68
2021/07/07 00:07:07;;;;;;;0.70;0.70;;;22.30;72.10;;;;;;3532391;40;20031;-68
2021/07/07 00:09:33;;;;;;;1.33;0.80;;;22.30;72.30;;;;;;3533120;40;20046;-68
2021/07/07 00:11:58;;;;;;;1.48;0.80;;;22.30;72.20;;;;;;3531781;40;20175;-68
2021/07/07 00:14:24;;;;;;;1.40;0.93;;;22.20;72.50;;;;;;3532660;40;20026;-69
2021/07/07 00:16:50;;;;;;;0.90;0.90;;;22.20;73.20;;;;;;3531436;40;20526;-68
2021/07/07 00:19:15;;;;;;;0.73;0.73;;;22.20;73.00;;;;;;3531039;40;20035;-68
2021/07/07 00:21:41;;;;;;;2.00;0.85;;;22.20;73.30;;;;;;3532147;40;20495;-68
2021/07/07 00:24:07;;;;;;;2.00;0.90;;;22.20;73.60;;;;;;3533429;40;20700;-68
2021/07/07 00:26:33;;;;;;;1.80;0.82;;;22.10;73.50;;;;;;3534017;40;20039;-68
2021/07/07 00:28:58;;;;;;;0.80;0.80;;;22.10;74.00;;;;;;3534292;40;20408;-68
2021/07/07 00:31:24;;;;;;;1.98;1.00;;;22.10;73.40;;;;;;3533947;40;20074;-68
2021/07/07 00:33:49;;;;;;;1.00;0.80;;;22.10;74.70;;;;;;3533797;40;20046;-68
2021/07/07 00:36:15;;;;;;;3.45;0.90;;;22.00;75.80;;;;;;3534788;40;20116;-68
2021/07/07 00:38:41;;;;;;;4.93;1.00;;;22.00;76.80;;;;;;3522364;40;20047;-68
2021/07/07 00:41:07;;;;;;;2.90;1.10;;;21.90;77.20;;;;;;3534526;40;20410;-68
2021/07/07 00:43:33;;;;;;;1.23;1.10;;;21.90;78.30;;;;;;3533681;40;20045;-67
2021/07/07 00:46:00;;;;;;;0.93;0.93;;;21.80;78.60;;;;;;3532706;40;20709;-68
2021/07/07 00:48:26;;;;;;;1.70;1.05;;;21.70;79.00;;;;;;3533411;40;20135;-69
2021/07/07 00:50:52;;;;;;;1.50;1.00;;;21.60;79.50;;;;;;3533097;40;20592;-68
2021/07/07 00:53:18;;;;;;;1.30;1.10;;;21.50;80.00;;;;;;3531523;40;20031;-69
2021/07/07 00:55:45;;;;;;;1.75;1.00;;;21.50;80.30;;;;;;3533961;40;20038;-68
2021/07/07 00:58:11;;;;;;;1.58;0.90;;;21.40;80.50;;;;;;3532379;40;20046;-69
2021/07/07 01:00:37;;;;;;;0.98;0.88;;;21.30;81.00;;;;;;3533205;40;20035;-69
2021/07/07 01:03:04;;;;;;;0.93;0.93;;;21.30;81.50;;;;;;3533413;40;20152;-69
2021/07/07 01:05:30;;;;;;;2.22;1.00;;;21.20;82.00;;;;;;3533454;40;20039;-69
2021/07/07 01:07:56;;;;;;;1.77;1.00;;;21.10;82.30;;;;;;3533904;40;20034;-68
2021/07/07 01:10:22;;;;;;;1.75;1.10;;;21.10;82.60;;;;;;3534274;40;20034;-68
2021/07/07 01:12:48;;;;;;;1.45;1.17;;;21.00;82.80;;;;;;3534095;40;20327;-69
2021/07/07 01:15:17;;;;;;;2.97;1.20;;;20.90;83.20;;;;;;3534855;40;20030;-68
2021/07/07 01:17:45;;;;;;;2.28;1.10;;;20.90;83.90;;;;;;3534592;40;20494;-68
2021/07/07 01:20:13;;;;;;;1.10;0.93;;;20.80;84.10;;;;;;3532272;40;20553;-68
2021/07/07 01:22:40;;;;;;;1.20;1.10;;;20.80;84.00;;;;;;3531934;40;20043;-68
2021/07/07 01:25:08;;;;;;;2.72;1.02;;;20.70;83.80;;;;;;3533090;40;20075;-68
2021/07/07 01:27:35;;;;;;;1.33;1.10;;;20.70;84.40;;;;;;3532459;40;20046;-67
2021/07/07 01:30:01;;;;;;;2.25;1.02;;;20.70;84.30;;;;;;3532472;40;20049;-68
2021/07/07 01:32:27;;;;;;;0.80;0.80;;;20.70;84.40;;;;;;3533305;40;20101;-68
2021/07/07 01:34:53;;;;;;;3.30;1.10;;;20.70;84.50;;;;;;3533279;40;20042;-68
2021/07/07 01:37:19;;;;;;;2.47;0.93;;;20.60;83.90;;;;;;3533349;40;20502;-68
2021/07/07 01:39:44;;;;;;;5.03;1.30;;;20.70;84.00;;;;;;3534243;40;20071;-68
2021/07/07 01:42:10;;;;;;;0.98;0.88;;;20.70;84.00;;;;;;3534746;40;20487;-68
2021/07/07 01:44:36;;;;;;;2.35;1.00;;;20.60;83.80;;;;;;3532710;40;20166;-68
2021/07/07 01:47:03;;;;;;;2.05;0.88;;;20.60;84.20;;;;;;3533607;40;20123;-68
2021/07/07 01:49:29;;;;;;;3.95;1.13;;;20.60;84.60;;;;;;3533750;40;20018;-68
2021/07/07 01:51:55;;;;;;;0.90;0.90;;;20.50;84.10;;;;;;3533390;40;20061;-68
2021/07/07 01:54:21;;;;;;;2.72;1.40;;;20.50;83.90;;;;;;3532808;40;20677;-68
2021/07/07 01:56:46;;;;;;;3.40;1.30;;;20.50;84.00;;;;;;3533833;40;20111;-68
2021/07/07 01:59:12;;;;;;;2.83;0.90;;;20.40;84.60;;;;;;3533403;40;20030;-68
2021/07/07 02:01:38;;;;;;;4.07;1.00;;;20.40;85.10;;;;;;3528977;40;20047;-68
2021/07/07 02:04:04;;;;;;;4.45;0.93;;;20.30;85.40;;;;;;3532482;40;20035;-68
2021/07/07 02:06:29;;;;;;;1.55;0.90;;;20.30;85.10;;;;;;3533125;40;20047;-68
2021/07/07 02:08:57;;;;;;;2.53;1.13;;;20.20;85.00;;;;;;3532799;40;20323;-68
2021/07/07 02:11:22;;;;;;;3.92;1.27;;;20.10;85.70;;;;;;3534603;40;20042;-68
2021/07/07 02:13:48;;;;;;;1.40;1.02;;;20.10;86.00;;;;;;3533799;40;20616;-68
2021/07/07 02:16:14;;;;;;;2.85;1.05;;;20.10;86.50;;;;;;3533537;40;20054;-68
2021/07/07 02:18:40;;;;;;;2.78;1.02;;;20.00;86.70;;;;;;3532215;40;20047;-68
2021/07/07 02:21:06;;;;;;;3.15;1.05;;;20.00;86.80;;;;;;3532213;40;20041;-68
2021/07/07 02:23:32;;;;;;;2.33;1.30;;;19.90;86.90;;;;;;3534513;40;20038;-68
2021/07/07 02:25:57;;;;;;;2.17;1.00;;;19.90;86.90;;;;;;3532227;40;20457;-68
2021/07/07 02:28:26;;;;;;;2.22;1.30;;;19.80;87.30;;;;;;3533848;40;20117;-68
2021/07/07 02:30:56;;;;;;;1.40;1.13;;;19.80;87.40;;;;;;3533268;40;20027;-68
2021/07/07 02:33:23;;;;;;;3.15;1.35;;;19.80;87.50;;;;;;3534210;40;20034;-68
2021/07/07 02:35:49;;;;;;;3.08;1.20;;;19.70;87.70;;;;;;3532277;40;20031;-69
2021/07/07 02:38:19;;;;;;;2.25;1.00;;;19.60;88.20;;;;;;3534096;40;20045;-68
2021/07/07 02:40:47;;;;;;;3.20;1.25;;;19.60;88.60;;;;;;3534173;40;20440;-68
2021/07/07 02:43:13;;;;;;;1.92;1.20;;;19.60;88.50;;;;;;3532715;40;20046;-69
2021/07/07 02:45:40;;;;;;;1.30;1.20;;;19.60;88.70;;;;;;3536109;40;20042;-68
2021/07/07 02:48:07;;;;;;;3.25;1.48;;;19.50;88.60;;;;;;3532308;40;20039;-68
2021/07/07 02:50:33;;;;;;;3.95;1.40;;;19.40;89.10;;;;;;3535739;40;20149;-68
2021/07/07 02:52:59;;;;;;;2.88;1.67;;;19.40;89.00;;;;;;3534107;40;20042;-68
2021/07/07 02:55:25;;;;;;;3.75;1.60;;;19.40;89.60;;;;;;3533096;40;20081;-69
2021/07/07 03:00:44;;;;;;;4.22;1.60;;;19.40;90.10;;;;;;3534080;40;20048;-68
2021/07/07 03:03:21;;;;;;;5.70;1.55;;;19.40;90.10;;;;;;3530152;40;20078;-69
2021/07/07 03:05:52;;;;;;;3.60;1.27;;;19.40;89.80;;;;;;3530964;40;20026;-69
2021/07/07 03:08:20;;;;;;;1.92;1.35;;;19.40;90.00;;;;;;3534126;40;20046;-70
2021/07/07 03:10:47;;;;;;;3.92;1.38;;;19.30;90.20;;;;;;3531105;40;20257;-69
2021/07/07 03:13:14;;;;;;;4.80;1.73;;;19.30;90.50;;;;;;3533781;40;20030;-69
2021/07/07 03:15:40;;;;;;;2.00;1.63;;;19.30;90.60;;;;;;3531692;40;20043;-69
2021/07/07 03:18:08;;;;;;;1.58;1.30;;;19.30;90.80;;;;;;3532837;40;20047;-69
2021/07/07 03:20:34;;;;;;;6.18;1.98;;;19.30;90.90;;;;;;3532148;40;20089;-69
2021/07/07 03:23:01;;;;;;;2.20;1.58;;;19.30;90.90;;;;;;3531707;40;20081;-69
2021/07/07 03:25:28;;;;;;;2.88;1.70;;;19.30;90.90;;;;;;3540075;40;20140;-69
2021/07/07 03:27:54;;;;;;;6.65;2.10;;;19.40;90.90;;;;;;3534190;40;20030;-69
2021/07/07 03:30:20;;;;;;;7.60;1.80;;;19.30;90.70;;;;;;3531818;40;20038;-69
2021/07/07 03:32:46;;;;;;;4.55;1.80;;;19.40;90.50;;;;;;3533475;40;20334;-69
2021/07/07 03:35:12;;;;;;;7.45;1.70;;;19.40;90.50;;;;;;3531004;40;20035;-69
2021/07/07 03:37:38;;;;;;;3.85;1.85;;;19.30;90.50;;;;;;3533876;40;20125;-70
2021/07/07 03:40:05;;;;;;;4.45;1.80;;;19.30;90.50;;;;;;3530524;40;20039;-70
2021/07/07 03:42:31;;;;;;;3.15;1.77;;;19.30;90.80;;;;;;3531696;40;20030;-70
2021/07/07 03:44:58;;;;;;;2.28;1.42;;;19.30;91.00;;;;;;3531152;40;20030;-70
2021/07/07 03:47:24;;;;;;;4.13;1.85;;;19.30;91.10;;;;;;3532950;40;20031;-70
2021/07/07 03:49:50;;;;;;;2.20;1.67;;;19.30;91.00;;;;;;3532156;40;20047;-70
2021/07/07 03:52:16;;;;;;;5.35;2.17;;;19.30;90.90;;;;;;3531704;40;20109;-69
2021/07/07 03:54:42;;;;;;;2.72;1.95;;;19.30;90.80;;;;;;3533263;40;20074;-69
2021/07/07 03:57:07;;;;;;;3.30;1.67;;;19.30;90.70;;;;;;3532080;40;20079;-68
2021/07/07 03:59:33;;;;;;;5.78;1.70;;;19.30;90.80;;;;;;3531205;40;20027;-69
2021/07/07 04:01:59;;;;;;;9.15;2.10;;;19.20;90.90;;;;;;3535487;40;20319;-68
2021/07/07 04:04:25;;;;;;;3.92;1.90;;;19.20;91.10;;;;;;3535680;40;20106;-68
2021/07/07 04:06:51;;;;;;;7.35;2.38;;;19.30;91.40;;;;;;3533373;40;20120;-68
2021/07/07 04:09:19;;;;;;;6.25;2.45;;;19.20;91.40;;;;;;3533751;40;20108;-69
2021/07/07 04:11:45;;;;;;;5.75;1.83;;;19.20;91.50;;;;;;3534340;40;20037;-69
2021/07/07 04:14:11;;;;;;;2.88;2.20;;;19.20;91.40;;;;;;3531794;40;20362;-69
2021/07/07 04:16:37;;;;;;;3.03;1.95;;;19.30;91.30;;;;;;3534270;40;20022;-69
2021/07/07 04:19:03;;;;;;;3.25;2.25;;;19.30;91.20;;;;;;3534576;40;20075;-69
2021/07/07 04:21:29;;;;;;;4.32;1.95;;;19.30;91.20;;;;;;3530735;40;20435;-69
2021/07/07 04:23:54;;;;;;;3.70;2.10;;;19.30;91.30;;;;;;3534339;40;20027;-69
2021/07/07 04:26:20;;;;;;;3.22;1.70;;;19.30;91.40;;;;;;3533953;40;20109;-69
2021/07/07 04:28:46;;;;;;;3.97;1.90;;;19.30;91.40;;;;;;3533126;40;20023;-69
2021/07/07 04:31:12;;;;;;;5.78;2.28;;;19.30;91.40;;;;;;3532009;40;20030;-68
2021/07/07 04:33:37;;;;;;;5.22;1.85;;;19.40;91.20;;;;;;3531676;40;20035;-68
2021/07/07 04:36:03;;;;;;;2.05;1.42;;;19.30;90.80;;;;;;3533093;40;20030;-68
2021/07/07 04:38:29;;;;;;;1.50;1.40;;;19.30;90.80;;;;;;3532807;40;20858;-68
2021/07/07 04:40:54;;;;;;;2.83;1.80;;;19.20;90.90;;;;;;3536162;40;20027;-68
2021/07/07 04:43:20;;;;;;;3.03;1.85;;;19.20;91.00;;;;;;3532186;40;20059;-68
2021/07/07 04:45:47;;;;;;;3.83;1.60;;;19.20;91.20;;;;;;3534245;40;20035;-68
2021/07/07 04:48:13;;;;;;;4.32;2.30;;;19.20;91.30;;;;;;3532350;40;20030;-68
2021/07/07 04:50:39;;;;;;;2.65;1.80;;;19.30;91.40;;;;;;3534380;40;20135;-68
2021/07/07 04:53:05;;;;;;;5.18;2.15;;;19.30;91.40;;;;;;3533441;40;20043;-68
2021/07/07 04:55:31;;;;;;;4.75;1.92;;;19.30;91.40;;;;;;3534150;40;20057;-68
2021/07/07 04:57:58;;;;;;;3.05;2.00;;;19.40;91.40;;;;;;3535204;40;20540;-68
2021/07/07 05:00:24;;;;;;;3.30;1.92;;;19.40;91.50;;;;;;3531998;40;20031;-68
2021/07/07 05:02:51;;;;;;;2.17;1.73;;;19.40;91.60;;;;;;3535070;40;20026;-68
2021/07/07 05:05:20;;;;;;;2.40;1.58;;;19.30;91.60;;;;;;3531366;40;20124;-69
2021/07/07 05:07:47;;;;;;;4.00;1.85;;;19.40;91.50;;;;;;3532081;40;20116;-69
2021/07/07 05:10:14;;;;;;;5.00;1.88;;;19.30;91.50;;;;;;3535561;40;20030;-69
2021/07/07 05:12:41;;;;;;;3.90;2.03;;;19.30;91.50;;;;;;3532464;40;20043;-69
2021/07/07 05:15:11;;;;;;;2.33;1.73;;;19.30;91.30;;;;;;3534282;40;20385;-69
2021/07/07 05:17:37;;;;;;;4.85;1.70;;;19.30;91.30;;;;;;3532849;40;20027;-69
2021/07/07 05:20:03;;;;;;;4.53;1.88;;;19.30;91.30;;;;;;3532266;40;20078;-69
2021/07/07 05:22:29;;;;;;;3.28;1.67;;;19.30;91.20;;;;;;3534362;40;20034;-68
2021/07/07 05:24:55;;;;;;;2.58;1.73;;;19.30;91.20;;;;;;3533165;40;20098;-68
2021/07/07 05:27:21;;;;;;;3.00;2.00;;;19.40;91.10;;;;;;3533524;40;20423;-69
2021/07/07 05:29:46;;;;;;;2.28;1.88;;;19.40;91.20;;;;;;3534565;40;20038;-69
2021/07/07 05:32:12;;;;;;;4.07;1.77;;;19.40;91.20;;;;;;3529078;40;20112;-68
2021/07/07 05:34:40;;;;;;;3.63;2.00;;;19.30;91.20;;;;;;3533131;40;20057;-68
2021/07/07 05:37:06;;;;;;;2.13;1.75;;;19.40;91.20;;;;;;3532075;40;20234;-68
2021/07/07 05:39:32;;;;;;;4.18;2.10;;;19.40;91.00;;;;;;3533955;40;20184;-69
2021/07/07 05:41:58;;;;;;;4.45;2.15;;;19.40;91.00;;;;;;3534874;40;20436;-69
2021/07/07 05:44:25;;;;;;;2.10;1.90;;;19.40;90.90;;;;;;3535152;40;20798;-68
2021/07/07 05:46:51;;;;;;;3.30;2.17;;;19.40;90.90;;;;;;3533052;40;20058;-69
2021/07/07 05:49:16;;;;;;;3.53;2.38;;;19.30;91.00;;;;;;3532536;40;20352;-69
2021/07/07 05:51:42;;;;;;;2.83;2.10;;;19.30;91.10;;;;;;3534313;40;20101;-69
2021/07/07 05:54:08;;;;;;;3.65;2.20;;;19.30;91.10;;;;;;3535115;40;20031;-69
2021/07/07 05:56:33;;;;;;;2.55;2.10;;;19.30;91.00;;;;;;3533840;40;20092;-69
2021/07/07 05:58:59;;;;;;;2.25;2.03;;;19.30;91.10;;;;;;3533111;40;20049;-69
2021/07/07 06:01:25;;;;;;;4.03;2.38;;;19.30;91.10;;;;;;3532290;40;20416;-68
2021/07/07 06:03:51;;;;;;;2.63;2.00;;;19.30;91.20;;;;;;3533484;40;20407;-68
2021/07/07 06:06:17;;;;;;;3.47;2.50;;;19.30;91.50;;;;;;3533823;40;20074;-68
2021/07/07 06:08:42;;;;;;;4.85;2.60;;;19.30;91.20;;;;;;3534854;40;20127;-68
2021/07/07 06:11:08;;;;;;;3.88;2.00;;;19.30;91.20;;;;;;3534029;40;20039;-68
2021/07/07 06:13:34;;;;;;;3.90;2.13;;;19.40;91.30;;;;;;3534362;40;20033;-68
2021/07/07 06:15:59;;;;;;;2.60;2.40;;;19.40;91.40;;;;;;3535116;40;20119;-68
2021/07/07 06:18:26;;;;;;;3.35;2.58;;;19.40;91.40;;;;;;3531618;40;20023;-68
2021/07/07 06:20:52;;;;;;;2.97;2.40;;;19.40;91.20;;;;;;3534305;40;20116;-68
2021/07/07 06:23:18;;;;;;;4.13;2.50;;;19.40;91.30;;;;;;3533495;40;20037;-68
2021/07/07 06:25:43;;;;;;;4.18;2.67;;;19.40;91.30;;;;;;3529793;40;20522;-68
2021/07/07 06:28:09;;;;;;;3.25;2.60;;;19.40;91.40;;;;;;3534312;40;20303;-68
2021/07/07 06:30:35;;;;;;;5.57;2.63;;;19.50;91.30;;;;;;3532577;40;20057;-68
2021/07/07 06:33:02;;;;;;;5.35;2.65;;;19.50;91.50;;;;;;3534283;40;20030;-68
2021/07/07 06:35:34;;;;;;;4.53;2.45;;;19.50;91.20;;;;;;3532784;40;20099;-68
2021/07/07 06:38:00;;;;;;;4.63;2.58;;;19.50;91.20;;;;;;3533244;40;20029;-68
2021/07/07 06:40:26;;;;;;;3.33;2.45;;;19.50;91.30;;;;;;3535021;40;20097;-68
2021/07/07 06:42:52;;;;;;;4.38;2.90;;;19.50;91.20;;;;;;3531440;40;20720;-68
2021/07/07 06:45:19;;;;;;;4.00;2.47;;;19.50;91.20;;;;;;3533419;40;20034;-68
2021/07/07 06:47:45;;;;;;;4.72;2.40;;;19.50;91.10;;;;;;3535017;40;20099;-68
2021/07/07 06:50:13;;;;;;;5.60;2.40;;;19.50;90.90;;;;;;3534892;40;20042;-68
2021/07/07 06:52:39;;;;;;;3.97;2.33;;;19.50;90.90;;;;;;3531378;40;20684;-68
2021/07/07 06:55:06;;;;;;;2.38;2.03;;;19.50;91.00;;;;;;3533495;40;20034;-68
2021/07/07 06:57:35;;;;;;;7.72;2.42;;;19.50;90.90;;;;;;3532992;40;20387;-68
2021/07/07 07:00:13;;;;;;;4.47;2.47;;;19.40;91.00;;;;;;3532448;40;20035;-68
2021/07/07 07:02:41;;;;;;;2.85;2.42;;;19.40;91.10;;;;;;3532272;40;20204;-68
2021/07/07 07:05:08;;;;;;;3.47;2.30;;;19.40;91.20;;;;;;3531692;40;20037;-68
2021/07/07 07:07:34;;;;;;;2.95;2.22;;;19.50;91.30;;;;;;3531494;40;20145;-68
2021/07/07 07:10:00;;;;;;;3.65;3.17;;;19.40;91.20;;;;;;3531255;40;20402;-68
2021/07/07 07:12:27;;;;;;;8.27;2.13;;;19.50;91.20;;;;;;3531134;40;20249;-68
2021/07/07 07:14:54;;;;;;;4.25;2.20;;;19.40;91.10;;;;;;3533786;40;20391;-68
2021/07/07 07:17:21;;;;;;;5.70;2.45;;;19.40;90.90;;;;;;3533461;40;20655;-65
2021/07/07 07:19:47;;;;;;;5.95;2.45;;;19.40;91.00;;;;;;3532413;40;20143;-66
2021/07/07 07:22:12;;;;;;;6.72;2.75;;;19.40;90.80;;;;;;3532047;40;20119;-66
2021/07/07 07:24:38;;;;;;;3.70;2.72;;;19.40;90.70;;;;;;3532856;40;20068;-67
2021/07/07 07:27:05;;;;;;;5.45;2.92;;;19.40;90.70;;;;;;3533257;40;20038;-65
2021/07/07 07:29:31;;;;;;;6.63;2.80;;;19.40;90.50;;;;;;3527899;40;20043;-66
2021/07/07 07:31:56;;;;;;;4.15;2.67;;;19.30;90.60;;;;;;3532022;40;20095;-65
2021/07/07 07:34:22;;;;;;;4.47;2.72;;;19.30;91.00;;;;;;3533881;40;20031;-66
2021/07/07 07:36:50;;;;;;;4.55;2.95;;;19.30;91.10;;;;;;3528689;40;20082;-66
2021/07/07 07:39:21;;;;;;;3.95;3.13;;;19.40;91.30;;;;;;3529711;40;20525;-66
2021/07/07 07:41:47;;;;;;;7.50;3.30;;;19.30;91.30;;;;;;3531167;40;20034;-66
2021/07/07 07:44:12;;;;;;;5.72;3.00;;;19.40;91.30;;;;;;3530950;40;20026;-65
2021/07/07 07:46:38;;;;;;;5.53;2.85;;;19.40;91.20;;;;;;3531536;40;20039;-66
2021/07/07 07:49:06;;;;;;;3.90;2.97;;;19.40;91.10;;;;;;3531252;40;20030;-65
2021/07/07 07:51:33;;;;;;;4.13;3.10;;;19.40;91.00;;;;;;3533292;40;20050;-65
2021/07/07 07:53:59;;;;;;;5.40;3.15;;;19.40;91.50;;;;;;3532632;40;20043;-66
2021/07/07 07:56:25;;;;;;;4.78;3.05;;;19.40;91.20;;;;;;3532590;40;20060;-66
2021/07/07 07:58:51;;;;;;;4.15;3.25;;;19.50;91.20;;;;;;3529420;40;20543;-66
2021/07/07 08:01:17;;;;;;;4.70;3.15;;;19.50;91.20;;;;;;3529968;40;20034;-65
2021/07/07 08:03:43;;;;;;;3.42;2.70;;;19.50;91.10;;;;;;3533300;40;20057;-66
2021/07/07 08:06:09;;;;;;;4.15;2.70;;;19.50;91.10;;;;;;3528815;40;20047;-67
2021/07/07 08:08:35;;;;;;;7.13;2.83;;;19.50;91.20;;;;;;3531818;40;20794;-66
2021/07/07 08:11:01;;;;;;;4.30;2.83;;;19.50;91.10;;;;;;3533144;40;20408;-64
2021/07/07 08:13:26;;;;;;;3.92;2.95;;;19.50;91.00;;;;;;3532478;40;20325;-64
2021/07/07 08:15:52;;;;;;;5.05;2.80;;;19.50;91.00;;;;;;3531330;40;20430;-64
2021/07/07 08:18:18;;;;;;;6.20;2.90;;;19.50;90.80;;;;;;3529566;40;20113;-64
2021/07/07 08:20:45;;;;;;;3.67;2.88;;;19.50;90.80;;;;;;3531441;40;20031;-65
2021/07/07 08:23:11;;;;;;;7.10;3.80;;;19.50;90.90;;;;;;3531535;40;20043;-64
2021/07/07 08:25:37;;;;;;;3.88;3.00;;;19.50;90.80;;;;;;3532581;40;20397;-64
2021/07/07 08:28:03;;;;;;;6.47;3.15;;;19.50;90.90;;;;;;3529197;40;20109;-64
2021/07/07 08:30:30;;;;;;;5.50;3.10;;;19.50;91.00;;;;;;3531827;40;20046;-64
2021/07/07 08:32:55;;;;;;;4.07;3.00;;;19.50;91.00;;;;;;3532355;40;20035;-64
2021/07/07 08:35:22;;;;;;;3.03;2.72;;;19.50;91.00;;;;;;3532952;40;20035;-64
2021/07/07 08:37:47;;;;;;;7.00;3.20;;;19.50;90.90;;;;;;3530764;40;20112;-64
2021/07/07 08:40:15;;;;;;;5.15;3.58;;;19.50;91.00;;;;;;3530225;40;20054;-65
2021/07/07 08:42:44;;;;;;;4.53;3.33;;;19.60;91.20;;;;;;3532716;40;20035;-64
2021/07/07 08:45:14;;;;;;;5.97;3.30;;;19.60;91.20;;;;;;3532817;40;20050;-64
2021/07/07 08:47:43;;;;;;;5.90;3.30;;;19.60;91.30;;;;;;3531865;40;20095;-65
2021/07/07 08:50:12;;;;;;;4.50;2.83;;;19.60;91.10;;;;;;3532143;40;20101;-65
2021/07/07 08:52:39;;;;;;;3.13;2.72;;;19.70;90.80;;;;;;3531993;40;20725;-64
2021/07/07 08:55:08;;;;;;;6.28;2.63;;;19.70;90.80;;;;;;3533581;40;20034;-65
2021/07/07 08:57:42;;;;;;;3.88;1.90;;;19.70;90.80;;;;;;3533342;40;20730;-64
2021/07/07 09:00:09;;;;;;;3.58;2.20;;;19.70;90.80;;;;;;3531869;40;20042;-64
2021/07/07 09:02:46;;;;;;;1.77;1.42;;;19.70;90.50;;;;;;3533453;40;20050;-64
2021/07/07 09:05:12;;;;;;;2.00;1.85;;;19.70;90.60;;;;;;3531189;40;20075;-64
2021/07/07 09:07:38;;;;;;;4.07;1.67;;;19.70;90.40;;;;;;3531810;40;20035;-64
2021/07/07 09:10:04;;;;;;;6.28;1.90;;;19.70;90.60;;;;;;3531060;40;20587;-64
2021/07/07 09:12:30;;;;;;;1.83;1.70;;;19.70;90.60;;;;;;3528987;40;20412;-64
2021/07/07 09:15:13;;;;;;;3.60;2.20;;;19.80;90.50;;;;;;3529293;40;20045;-64
2021/07/07 09:17:50;;;;;;;5.15;2.67;;;19.90;90.50;;;;;;3531053;40;20057;-64
2021/07/07 09:20:36;;;;;;;4.07;2.03;;;19.90;90.50;;;;;;3528640;40;20425;-64
2021/07/07 09:23:17;;;;;;;2.75;1.98;;;19.90;90.40;;;;;;3528564;40;20042;-65
2021/07/07 09:26:08;;;;;;;3.80;1.80;;;19.90;90.50;;;;;;3531592;40;20070;-65
2021/07/07 09:28:36;;;;;;;6.47;1.70;;;19.80;90.40;;;;;;3530445;40;20577;-64
2021/07/07 09:31:07;;;;;;;3.30;2.10;;;19.90;90.10;;;;;;3530722;40;20030;-64
2021/07/07 09:33:42;;;;;;;2.20;1.67;;;19.80;90.00;;;;;;3531890;40;20031;-64
2021/07/07 09:36:19;;;;;;;2.57;1.93;;;19.80;90.10;;;;;;3526339;40;20026;-64
2021/07/07 09:38:46;;;;;;;2.58;1.65;;;19.90;90.20;;;;;;3531825;40;20266;-64
2021/07/07 09:41:13;;;;;;;1.85;1.60;;;19.90;90.30;;;;;;3529318;40;20045;-64
2021/07/07 09:44:06;;;;;;;2.10;1.60;;;19.90;90.30;;;;;;3530952;40;20127;-64
2021/07/07 09:46:34;;;;;;;2.03;1.85;;;19.90;90.20;;;;;;3530509;40;20030;-64
2021/07/07 09:49:00;;;;;;;2.53;1.48;;;20.00;90.10;;;;;;3532034;40;20035;-64
2021/07/07 09:51:25;;;;;;;1.88;1.70;;;20.10;90.20;;;;;;3531516;40;20842;-64
2021/07/07 09:53:51;;;;;;;3.13;1.35;;;20.20;90.10;;;;;;3532963;40;20058;-64
2021/07/07 09:56:17;;;;;;;4.35;1.77;;;20.30;90.00;;;;;;3530938;40;20050;-64
2021/07/07 09:58:43;;;;;;;6.07;2.35;;;20.40;89.90;;;;;;3534119;40;20087;-64
2021/07/07 10:01:09;;;;;;;3.67;1.88;;;20.40;89.60;;;;;;3532535;40;20092;-65
2021/07/07 10:03:36;;;;;;;3.47;1.90;;;20.50;89.40;;;;;;3533567;40;20073;-64
2021/07/07 10:06:03;;;;;;;3.03;2.08;;;20.40;89.40;;;;;;3531945;40;20075;-65
2021/07/07 10:08:29;;;;;;;2.97;2.40;;;20.40;89.40;;;;;;3534004;40;20072;-64
2021/07/07 10:10:57;;;;;;;2.47;2.20;;;20.50;89.40;;;;;;3532888;40;20042;-64
2021/07/07 10:13:24;;;;;;;2.55;2.15;;;20.50;89.40;;;;;;3533934;40;20096;-65
2021/07/07 10:15:50;;;;;;;4.55;2.15;;;20.60;89.20;;;;;;3531115;40;20058;-64
2021/07/07 10:18:17;;;;;;;7.82;2.70;;;20.60;89.30;;;;;;3532160;40;20051;-65
2021/07/07 10:20:43;;;;;;;4.38;2.20;;;20.60;89.30;;;;;;3532712;40;20038;-64
2021/07/07 10:23:11;;;;;;;4.57;2.15;;;20.60;87.90;;;;;;3532712;40;20046;-64
2021/07/07 10:25:38;;;;;;;3.58;1.83;;;20.60;88.80;;;;;;3532729;40;20502;-64
2021/07/07 10:28:08;;;;;;;2.75;2.05;;;20.50;88.70;;;;;;3533439;40;20920;-64
2021/07/07 10:30:59;;;;;;;3.33;2.17;;;20.50;88.30;;;;;;3531415;40;20140;-64
2021/07/07 10:33:31;;;;;;;3.00;2.15;;;20.40;88.60;;;;;;3532038;40;20034;-64
2021/07/07 10:36:15;;;;;;;3.58;2.13;;;20.40;88.50;;;;;;3532156;40;20031;-64
2021/07/07 10:38:48;;;;;;;3.45;2.00;;;20.40;88.70;;;;;;3534731;40;20046;-64
2021/07/07 10:41:14;;;;;;;4.60;2.10;;;20.50;89.00;;;;;;3527457;40;20053;-65
2021/07/07 10:43:45;;;;;;;3.63;2.00;;;20.60;89.00;;;;;;3534847;40;20030;-65
2021/07/07 10:46:52;;;;;;;2.95;2.28;;;20.60;88.80;;;;;;3529639;40;20112;-66
2021/07/07 10:49:19;;;;;;;4.50;2.20;;;20.80;88.50;;;;;;3530196;40;20043;-66
2021/07/07 10:51:46;;;;;;;4.38;2.25;;;20.90;88.50;;;;;;3530468;40;20297;-65
2021/07/07 10:54:52;;;;;;;2.50;2.00;;;21.00;89.00;;;;;;3534940;40;20034;-65
2021/07/07 10:57:23;;;;;;;3.83;1.85;;;21.20;88.60;;;;;;3530126;40;20041;-66
2021/07/07 10:59:53;;;;;;;2.83;2.28;;;21.30;88.10;;;;;;3531943;40;20039;-65
2021/07/07 11:02:21;;;;;;;2.90;2.15;;;21.50;87.50;;;;;;3533515;40;20047;-65
2021/07/07 11:04:51;;;;;;;3.70;2.10;;;21.60;81.80;;;;;;3531861;40;20441;-65
2021/07/07 11:07:32;;;;;;;2.88;2.10;;;21.70;82.80;;;;;;3532638;40;20027;-66
2021/07/07 11:09:58;;;;;;;4.85;2.70;;;21.80;84.50;;;;;;3524944;40;20088;-65
2021/07/07 11:12:42;;;;;;;4.05;2.30;;;22.00;78.80;;;;;;3532915;40;20768;-65
2021/07/07 11:15:08;;;;;;;4.72;2.03;;;22.10;81.50;;;;;;3528952;40;20909;-65
2021/07/07 11:17:36;;;;;;;3.15;2.17;;;22.10;82.30;;;;;;3531910;40;20064;-65
2021/07/07 11:20:13;;;;;;;4.80;2.00;;;22.20;81.90;;;;;;3532370;40;20046;-65
2021/07/07 11:22:41;;;;;;;2.25;2.00;;;22.20;83.20;;;;;;3530162;40;20031;-65
2021/07/07 11:25:10;;;;;;;3.13;1.80;;;22.30;82.90;;;;;;3527317;40;20909;-66
2021/07/07 11:27:37;;;;;;;2.65;1.67;;;22.40;82.30;;;;;;3531680;40;20132;-65
2021/07/07 11:30:09;;;;;;;3.40;1.83;;;22.40;81.50;;;;;;3530576;40;20031;-66
2021/07/07 11:32:43;;;;;;;2.35;1.80;;;22.50;80.60;;;;;;3532861;40;20085;-66
2021/07/07 11:35:22;;;;;;;3.47;1.63;;;22.50;80.50;;;;;;3530908;40;20035;-65
2021/07/07 11:37:53;;;;;;;3.05;1.73;;;22.50;78.50;;;;;;3522002;40;20042;-65
2021/07/07 11:40:21;;;;;;;2.88;1.60;;;22.60;79.90;;;;;;3530853;40;20031;-65
2021/07/07 11:42:59;;;;;;;3.70;2.17;;;22.50;79.10;;;;;;3530095;40;20616;-65
2021/07/07 11:45:33;;;;;;;2.08;1.88;;;22.60;78.60;;;;;;3532644;40;20113;-67
2021/07/07 11:50:54;;;;;;;2.67;1.95;;;22.70;78.70;;;;;;3530986;40;20081;-65
2021/07/07 11:53:21;;;;;;;3.60;2.22;;;22.70;78.60;;;;;;3531122;40;20761;-64
2021/07/07 11:55:59;;;;;;;2.72;1.60;;;22.70;78.80;;;;;;3532187;40;20030;-66
2021/07/07 11:58:31;;;;;;;1.92;1.65;;;22.70;78.80;;;;;;3528399;40;20039;-66
2021/07/07 12:01:05;;;;;;;1.67;1.40;;;22.80;78.30;;;;;;3523264;40;20498;-66
2021/07/07 12:03:31;;;;;;;1.58;1.48;;;22.90;77.80;;;;;;3531910;40;20053;-65
2021/07/07 12:06:01;;;;;;;2.63;1.60;;;23.00;75.60;;;;;;3528252;40;20059;-66
2021/07/07 12:08:54;;;;;;;1.90;1.33;;;23.00;75.00;;;;;;3531508;40;20031;-66
2021/07/07 12:11:20;;;;;;;2.53;1.55;;;23.00;75.60;;;;;;3533299;40;20049;-66
2021/07/07 12:13:48;;;;;;;1.50;1.10;;;23.00;75.90;;;;;;3530240;40;20684;-66
2021/07/07 12:16:21;;;;;;;1.60;1.23;;;23.00;76.30;;;;;;3532154;40;20042;-68
2021/07/07 12:19:02;;;;;;;4.57;1.50;;;22.80;77.50;;;;;;3532427;40;20038;-66
2021/07/07 12:21:29;;;;;;;5.38;1.70;;;22.80;78.50;;;;;;3532552;40;20045;-66
2021/07/07 12:23:57;;;;;;;5.38;1.70;;;22.70;78.50;;;;;;3534187;40;20054;-66
2021/07/07 12:26:35;;;;;;;1.60;1.50;;;22.80;77.50;;;;;;3532753;40;20050;-65
2021/07/07 12:29:01;;;;;;;2.38;2.00;;;22.70;78.40;;;;;;3535910;40;20061;-66
2021/07/07 12:31:31;;;;;;;3.50;1.90;;;22.70;79.20;;;;;;3533403;40;20047;-69
2021/07/07 12:33:57;;;;;;;5.82;2.22;;;22.80;79.00;;;;;;3530892;40;20289;-65
2021/07/07 12:36:28;;;;;;;2.63;1.60;;;22.60;77.50;;;;;;3533359;40;20289;-65
2021/07/07 12:38:58;;;;;;;7.20;3.53;;;22.70;78.90;;;;;;3532482;40;20027;-66
2021/07/07 12:41:38;;;;;;;2.88;1.98;;;22.70;78.40;;;;;;3533628;40;20744;-70
2021/07/07 12:44:10;;;;;;;2.78;1.80;;;22.70;77.10;;;;;;3532237;40;20375;-70
2021/07/07 12:46:51;;;;;;;3.67;1.23;;;22.80;77.70;;;;;;3532556;40;20447;-66
2021/07/07 12:49:23;;;;;;;1.02;0.93;;;22.90;78.40;;;;;;3505037;40;1065711;-66
2021/07/07 12:51:50;;;;;;;1.90;1.30;;;22.90;77.70;;;;;;3533688;40;20022;-66
2021/07/07 12:54:22;;;;;;;2.72;1.02;;;22.80;76.90;;;;;;3533213;40;20285;-66
2021/07/07 12:56:56;;;;;;;2.90;1.10;;;22.70;78.30;;;;;;3532473;40;20026;-66
2021/07/07 12:59:22;;;;;;;1.02;0.90;;;22.60;78.10;;;;;;3533869;40;20053;-66